SBML

Details ICAO SBML (MII)
Name MARILIA
Region Brazil
Timezone America/Sao_Paulo (UTC-2.0)
Plans Departing 10
Arriving 11
Stats Elevation 2,122 ft / 647 m (AMSL)
Location -22.196890° -49.926399°
Runways 1
Magnetic Variation 19.978° W
Sunrise 2017-12-13 08:31:11 UTC / 2017-12-13 06:31:11 Local
Sunset 2017-12-13 21:59:36 UTC / 2017-12-13 19:59:36 Local
Advertisement - Login to hide

Runways

ID Width Length Bearing (true) Bearing (mag) Surface Threshold Offset Overrun Length
02 115 ft / 35 m 5,553 ft / 1,693 m 13.32° 33.30° Asphalt 0 ft / 0 m 0 ft / 0 m
20 115 ft / 35 m 5,553 ft / 1,693 m 193.32° 213.30° Asphalt 0 ft / 0 m 0 ft / 0 m

Map

Weather


0- 5 10 15 20 25 30 35+ Temperature / ° C

Clouds and Precipitation
Forecast for 2017-12-13 12:00 UTC. Updated 38 minutes ago

Ground ~20,000 ft ~40,000 ft Winds

METAR

SBML 130700Z 15012KT CAVOK 18/16 Q1015

TAF

Not found

Frequencies

Tower 130.45 MHz RDO
Warning: Do not use this data for real-world aviation or navigation. No guarantee of current accuracy is given.